sensor_id;sensor_type;location;lat;lon;timestamp;P1;durP1;ratioP1;P2;durP2;ratioP2
19621;SDS011;9958;33.196;-97.114;2024-02-28T00:00:42;16.77;;;9.43;;
19621;SDS011;9958;33.196;-97.114;2024-02-28T00:03:11;12.85;;;9.25;;
19621;SDS011;9958;33.196;-97.114;2024-02-28T00:05:39;15.27;;;9.27;;
19621;SDS011;9958;33.196;-97.114;2024-02-28T00:08:09;19.38;;;10.02;;
19621;SDS011;9958;33.196;-97.114;2024-02-28T00:10:37;15.27;;;9.07;;
19621;SDS011;9958;33.196;-97.114;2024-02-28T00:13:05;13.32;;;9.25;;
19621;SDS011;9958;33.196;-97.114;2024-02-28T00:15:34;17.55;;;11.27;;
19621;SDS011;9958;33.196;-97.114;2024-02-28T00:18:02;16.30;;;9.95;;
19621;SDS011;9958;33.196;-97.114;2024-02-28T00:20:31;15.18;;;10.43;;
19621;SDS011;9958;33.196;-97.114;2024-02-28T00:22:59;19.92;;;10.35;;
19621;SDS011;9958;33.196;-97.114;2024-02-28T00:25:29;19.45;;;11.02;;
19621;SDS011;9958;33.196;-97.114;2024-02-28T00:27:57;18.50;;;11.45;;
19621;SDS011;9958;33.196;-97.114;2024-02-28T00:30:25;17.30;;;11.27;;
19621;SDS011;9958;33.196;-97.114;2024-02-28T00:32:54;17.90;;;11.57;;
19621;SDS011;9958;33.196;-97.114;2024-02-28T00:35:22;20.08;;;12.13;;
19621;SDS011;9958;33.196;-97.114;2024-02-28T00:37:51;17.98;;;11.82;;
19621;SDS011;9958;33.196;-97.114;2024-02-28T00:40:20;17.65;;;12.05;;
19621;SDS011;9958;33.196;-97.114;2024-02-28T00:42:52;17.83;;;12.45;;
19621;SDS011;9958;33.196;-97.114;2024-02-28T00:45:20;16.55;;;11.25;;
19621;SDS011;9958;33.196;-97.114;2024-02-28T00:47:49;15.43;;;11.80;;
19621;SDS011;9958;33.196;-97.114;2024-02-28T00:50:17;16.52;;;11.73;;
19621;SDS011;9958;33.196;-97.114;2024-02-28T00:52:45;18.45;;;12.65;;
19621;SDS011;9958;33.196;-97.114;2024-02-28T00:55:14;14.63;;;11.70;;
19621;SDS011;9958;33.196;-97.114;2024-02-28T00:57:44;16.88;;;11.43;;
19621;SDS011;9958;33.196;-97.114;2024-02-28T01:00:14;19.58;;;11.95;;
19621;SDS011;9958;33.196;-97.114;2024-02-28T01:02:43;20.20;;;12.82;;
19621;SDS011;9958;33.196;-97.114;2024-02-28T01:05:11;19.77;;;12.05;;
19621;SDS011;9958;33.196;-97.114;2024-02-28T01:07:39;18.02;;;11.80;;
19621;SDS011;9958;33.196;-97.114;2024-02-28T01:10:08;19.70;;;12.48;;
19621;SDS011;9958;33.196;-97.114;2024-02-28T01:12:36;18.58;;;12.20;;
19621;SDS011;9958;33.196;-97.114;2024-02-28T01:15:05;22.73;;;12.85;;
19621;SDS011;9958;33.196;-97.114;2024-02-28T01:17:35;19.92;;;12.30;;
19621;SDS011;9958;33.196;-97.114;2024-02-28T01:20:04;20.05;;;13.55;;
19621;SDS011;9958;33.196;-97.114;2024-02-28T01:22:34;20.23;;;13.02;;
19621;SDS011;9958;33.196;-97.114;2024-02-28T01:25:02;19.83;;;13.00;;
19621;SDS011;9958;33.196;-97.114;2024-02-28T01:27:31;18.23;;;11.63;;
19621;SDS011;9958;33.196;-97.114;2024-02-28T01:30:00;20.50;;;13.40;;
19621;SDS011;9958;33.196;-97.114;2024-02-28T01:32:29;19.25;;;12.85;;
19621;SDS011;9958;33.196;-97.114;2024-02-28T01:34:59;21.33;;;13.25;;
19621;SDS011;9958;33.196;-97.114;2024-02-28T01:37:28;20.55;;;12.65;;
19621;SDS011;9958;33.196;-97.114;2024-02-28T01:39:56;22.33;;;12.50;;
19621;SDS011;9958;33.196;-97.114;2024-02-28T01:42:24;18.00;;;12.93;;
19621;SDS011;9958;33.196;-97.114;2024-02-28T01:44:53;22.60;;;13.25;;
19621;SDS011;9958;33.196;-97.114;2024-02-28T01:47:22;22.80;;;13.30;;
19621;SDS011;9958;33.196;-97.114;2024-02-28T01:49:50;18.45;;;13.13;;
19621;SDS011;9958;33.196;-97.114;2024-02-28T01:52:21;18.52;;;12.32;;
19621;SDS011;9958;33.196;-97.114;2024-02-28T01:54:49;19.42;;;13.65;;
19621;SDS011;9958;33.196;-97.114;2024-02-28T01:57:18;19.55;;;12.88;;
19621;SDS011;9958;33.196;-97.114;2024-02-28T01:59:46;22.40;;;13.38;;
19621;SDS011;9958;33.196;-97.114;2024-02-28T02:02:15;18.45;;;12.82;;
19621;SDS011;9958;33.196;-97.114;2024-02-28T02:04:43;23.05;;;13.20;;
19621;SDS011;9958;33.196;-97.114;2024-02-28T02:07:11;23.08;;;13.88;;
19621;SDS011;9958;33.196;-97.114;2024-02-28T02:09:41;19.75;;;12.98;;
19621;SDS011;9958;33.196;-97.114;2024-02-28T02:12:10;23.75;;;13.55;;
19621;SDS011;9958;33.196;-97.114;2024-02-28T02:14:38;25.02;;;13.10;;
19621;SDS011;9958;33.196;-97.114;2024-02-28T02:17:06;19.17;;;13.02;;
19621;SDS011;9958;33.196;-97.114;2024-02-28T02:19:35;22.63;;;13.27;;
19621;SDS011;9958;33.196;-97.114;2024-02-28T02:22:03;21.75;;;14.38;;
19621;SDS011;9958;33.196;-97.114;2024-02-28T02:24:36;21.58;;;13.75;;
19621;SDS011;9958;33.196;-97.114;2024-02-28T02:27:05;20.15;;;13.32;;
19621;SDS011;9958;33.196;-97.114;2024-02-28T02:29:33;21.48;;;14.23;;
19621;SDS011;9958;33.196;-97.114;2024-02-28T02:32:01;20.65;;;14.98;;
19621;SDS011;9958;33.196;-97.114;2024-02-28T02:34:30;23.92;;;14.38;;
19621;SDS011;9958;33.196;-97.114;2024-02-28T02:36:58;19.58;;;13.13;;
19621;SDS011;9958;33.196;-97.114;2024-02-28T02:39:26;20.17;;;12.77;;
19621;SDS011;9958;33.196;-97.114;2024-02-28T02:41:56;17.33;;;13.00;;
19621;SDS011;9958;33.196;-97.114;2024-02-28T02:44:24;16.80;;;12.43;;
19621;SDS011;9958;33.196;-97.114;2024-02-28T02:46:53;19.48;;;13.60;;
19621;SDS011;9958;33.196;-97.114;2024-02-28T02:49:21;19.58;;;13.00;;
19621;SDS011;9958;33.196;-97.114;2024-02-28T02:51:49;17.33;;;11.13;;
19621;SDS011;9958;33.196;-97.114;2024-02-28T02:54:18;20.63;;;12.90;;
19621;SDS011;9958;33.196;-97.114;2024-02-28T02:56:46;17.60;;;12.52;;
19621;SDS011;9958;33.196;-97.114;2024-02-28T02:59:16;18.40;;;11.77;;
19621;SDS011;9958;33.196;-97.114;2024-02-28T03:01:47;20.50;;;11.60;;
19621;SDS011;9958;33.196;-97.114;2024-02-28T03:04:16;16.73;;;11.75;;
19621;SDS011;9958;33.196;-97.114;2024-02-28T03:06:45;18.38;;;12.05;;
19621;SDS011;9958;33.196;-97.114;2024-02-28T03:09:13;17.05;;;11.90;;
19621;SDS011;9958;33.196;-97.114;2024-02-28T03:11:41;19.15;;;11.27;;
19621;SDS011;9958;33.196;-97.114;2024-02-28T03:14:09;16.48;;;11.18;;
19621;SDS011;9958;33.196;-97.114;2024-02-28T03:16:42;22.27;;;11.55;;
19621;SDS011;9958;33.196;-97.114;2024-02-28T03:19:10;16.70;;;10.93;;
19621;SDS011;9958;33.196;-97.114;2024-02-28T03:21:39;14.68;;;10.43;;
19621;SDS011;9958;33.196;-97.114;2024-02-28T03:24:07;18.52;;;10.57;;
19621;SDS011;9958;33.196;-97.114;2024-02-28T03:26:35;19.88;;;11.70;;
19621;SDS011;9958;33.196;-97.114;2024-02-28T03:29:04;15.57;;;11.48;;
19621;SDS011;9958;33.196;-97.114;2024-02-28T03:31:32;14.88;;;10.85;;
19621;SDS011;9958;33.196;-97.114;2024-02-28T03:34:02;16.42;;;11.05;;
19621;SDS011;9958;33.196;-97.114;2024-02-28T03:36:30;15.73;;;10.02;;
19621;SDS011;9958;33.196;-97.114;2024-02-28T03:38:58;19.48;;;11.20;;
19621;SDS011;9958;33.196;-97.114;2024-02-28T03:41:27;16.30;;;11.13;;
19621;SDS011;9958;33.196;-97.114;2024-02-28T03:43:55;17.85;;;10.93;;
19621;SDS011;9958;33.196;-97.114;2024-02-28T03:46:23;16.88;;;10.65;;
19621;SDS011;9958;33.196;-97.114;2024-02-28T03:48:52;15.05;;;10.10;;
19621;SDS011;9958;33.196;-97.114;2024-02-28T03:51:21;13.60;;;10.23;;
19621;SDS011;9958;33.196;-97.114;2024-02-28T03:53:50;15.73;;;10.32;;
19621;SDS011;9958;33.196;-97.114;2024-02-28T03:56:21;15.30;;;9.90;;
19621;SDS011;9958;33.196;-97.114;2024-02-28T03:58:51;15.75;;;9.70;;
19621;SDS011;9958;33.196;-97.114;2024-02-28T04:01:19;14.98;;;10.00;;
19621;SDS011;9958;33.196;-97.114;2024-02-28T04:03:47;13.15;;;9.57;;
19621;SDS011;9958;33.196;-97.114;2024-02-28T04:06:16;14.57;;;9.32;;
19621;SDS011;9958;33.196;-97.114;2024-02-28T04:08:46;13.25;;;9.10;;
19621;SDS011;9958;33.196;-97.114;2024-02-28T04:11:14;14.68;;;9.40;;
19621;SDS011;9958;33.196;-97.114;2024-02-28T04:13:42;17.38;;;8.88;;
19621;SDS011;9958;33.196;-97.114;2024-02-28T04:16:11;15.18;;;8.18;;
19621;SDS011;9958;33.196;-97.114;2024-02-28T04:18:39;17.10;;;8.65;;
19621;SDS011;9958;33.196;-97.114;2024-02-28T04:21:07;11.90;;;8.32;;
19621;SDS011;9958;33.196;-97.114;2024-02-28T04:23:36;14.98;;;8.23;;
19621;SDS011;9958;33.196;-97.114;2024-02-28T04:26:06;12.27;;;8.18;;
19621;SDS011;9958;33.196;-97.114;2024-02-28T04:28:35;13.65;;;7.78;;
19621;SDS011;9958;33.196;-97.114;2024-02-28T04:31:03;13.13;;;7.82;;
19621;SDS011;9958;33.196;-97.114;2024-02-28T04:33:32;14.00;;;7.97;;
19621;SDS011;9958;33.196;-97.114;2024-02-28T04:36:00;12.98;;;8.43;;
19621;SDS011;9958;33.196;-97.114;2024-02-28T04:38:29;11.15;;;7.13;;
19621;SDS011;9958;33.196;-97.114;2024-02-28T04:40:57;12.85;;;7.50;;
19621;SDS011;9958;33.196;-97.114;2024-02-28T04:43:27;11.60;;;6.80;;
19621;SDS011;9958;33.196;-97.114;2024-02-28T04:45:55;11.65;;;7.10;;
19621;SDS011;9958;33.196;-97.114;2024-02-28T04:48:23;9.35;;;6.80;;
19621;SDS011;9958;33.196;-97.114;2024-02-28T04:50:52;13.50;;;7.15;;
19621;SDS011;9958;33.196;-97.114;2024-02-28T04:53:20;11.35;;;7.28;;
19621;SDS011;9958;33.196;-97.114;2024-02-28T04:55:48;12.68;;;7.32;;
19621;SDS011;9958;33.196;-97.114;2024-02-28T04:58:17;10.15;;;6.75;;
19621;SDS011;9958;33.196;-97.114;2024-02-28T05:00:47;10.35;;;7.13;;
19621;SDS011;9958;33.196;-97.114;2024-02-28T05:03:15;11.48;;;7.60;;
19621;SDS011;9958;33.196;-97.114;2024-02-28T05:05:44;13.85;;;7.43;;
19621;SDS011;9958;33.196;-97.114;2024-02-28T05:08:12;10.90;;;6.93;;
19621;SDS011;9958;33.196;-97.114;2024-02-28T05:10:41;12.60;;;7.28;;
19621;SDS011;9958;33.196;-97.114;2024-02-28T05:13:09;14.55;;;6.70;;
19621;SDS011;9958;33.196;-97.114;2024-02-28T05:15:37;14.18;;;7.85;;
19621;SDS011;9958;33.196;-97.114;2024-02-28T05:18:07;10.88;;;7.25;;
19621;SDS011;9958;33.196;-97.114;2024-02-28T05:20:36;11.60;;;7.03;;
19621;SDS011;9958;33.196;-97.114;2024-02-28T05:23:04;17.88;;;7.40;;
19621;SDS011;9958;33.196;-97.114;2024-02-28T05:25:32;13.63;;;7.28;;
19621;SDS011;9958;33.196;-97.114;2024-02-28T05:28:00;10.75;;;7.45;;
19621;SDS011;9958;33.196;-97.114;2024-02-28T05:30:29;11.00;;;7.40;;
19621;SDS011;9958;33.196;-97.114;2024-02-28T05:32:57;10.07;;;7.95;;
19621;SDS011;9958;33.196;-97.114;2024-02-28T05:35:27;11.60;;;7.80;;
19621;SDS011;9958;33.196;-97.114;2024-02-28T05:37:55;13.30;;;7.07;;
19621;SDS011;9958;33.196;-97.114;2024-02-28T05:40:24;8.52;;;5.47;;
19621;SDS011;9958;33.196;-97.114;2024-02-28T05:42:52;10.65;;;5.63;;
19621;SDS011;9958;33.196;-97.114;2024-02-28T05:45:20;11.77;;;5.50;;
19621;SDS011;9958;33.196;-97.114;2024-02-28T05:47:48;9.63;;;4.95;;
19621;SDS011;9958;33.196;-97.114;2024-02-28T05:50:17;6.93;;;4.50;;
19621;SDS011;9958;33.196;-97.114;2024-02-28T05:52:47;13.00;;;4.13;;
19621;SDS011;9958;33.196;-97.114;2024-02-28T05:55:15;25.42;;;3.42;;
19621;SDS011;9958;33.196;-97.114;2024-02-28T05:57:44;15.40;;;2.17;;
19621;SDS011;9958;33.196;-97.114;2024-02-28T06:00:13;15.98;;;2.05;;
19621;SDS011;9958;33.196;-97.114;2024-02-28T06:02:41;11.02;;;2.30;;
19621;SDS011;9958;33.196;-97.114;2024-02-28T06:05:10;8.18;;;2.45;;
19621;SDS011;9958;33.196;-97.114;2024-02-28T06:07:39;13.55;;;1.95;;
19621;SDS011;9958;33.196;-97.114;2024-02-28T06:10:09;11.75;;;1.65;;
19621;SDS011;9958;33.196;-97.114;2024-02-28T06:12:37;4.22;;;2.85;;
19621;SDS011;9958;33.196;-97.114;2024-02-28T06:15:06;12.27;;;1.58;;
19621;SDS011;9958;33.196;-97.114;2024-02-28T06:17:34;12.05;;;1.42;;
19621;SDS011;9958;33.196;-97.114;2024-02-28T06:20:03;8.07;;;1.58;;
19621;SDS011;9958;33.196;-97.114;2024-02-28T06:22:32;8.05;;;1.40;;
19621;SDS011;9958;33.196;-97.114;2024-02-28T06:25:00;10.73;;;1.52;;
19621;SDS011;9958;33.196;-97.114;2024-02-28T06:27:34;9.30;;;1.63;;
19621;SDS011;9958;33.196;-97.114;2024-02-28T06:30:03;9.40;;;1.63;;
19621;SDS011;9958;33.196;-97.114;2024-02-28T06:32:32;7.60;;;1.73;;
19621;SDS011;9958;33.196;-97.114;2024-02-28T06:35:00;9.07;;;1.75;;
19621;SDS011;9958;33.196;-97.114;2024-02-28T06:37:29;5.10;;;1.33;;
19621;SDS011;9958;33.196;-97.114;2024-02-28T06:39:58;8.82;;;1.58;;
19621;SDS011;9958;33.196;-97.114;2024-02-28T06:42:26;9.52;;;1.73;;
19621;SDS011;9958;33.196;-97.114;2024-02-28T06:44:56;4.70;;;1.42;;
19621;SDS011;9958;33.196;-97.114;2024-02-28T06:47:24;9.68;;;1.75;;
19621;SDS011;9958;33.196;-97.114;2024-02-28T06:49:52;9.77;;;1.38;;
19621;SDS011;9958;33.196;-97.114;2024-02-28T06:52:21;3.65;;;1.10;;
19621;SDS011;9958;33.196;-97.114;2024-02-28T06:54:49;5.93;;;1.30;;
19621;SDS011;9958;33.196;-97.114;2024-02-28T06:57:17;5.80;;;1.40;;
19621;SDS011;9958;33.196;-97.114;2024-02-28T06:59:45;4.55;;;1.30;;
19621;SDS011;9958;33.196;-97.114;2024-02-28T07:02:16;1.25;;;1.10;;
19621;SDS011;9958;33.196;-97.114;2024-02-28T07:04:44;2.97;;;1.80;;
19621;SDS011;9958;33.196;-97.114;2024-02-28T07:07:13;5.55;;;1.17;;
19621;SDS011;9958;33.196;-97.114;2024-02-28T07:09:41;4.30;;;1.25;;
19621;SDS011;9958;33.196;-97.114;2024-02-28T07:12:09;4.20;;;1.23;;
19621;SDS011;9958;33.196;-97.114;2024-02-28T07:14:37;4.95;;;1.77;;
19621;SDS011;9958;33.196;-97.114;2024-02-28T07:17:06;11.18;;;1.48;;
19621;SDS011;9958;33.196;-97.114;2024-02-28T07:19:37;5.30;;;1.50;;
19621;SDS011;9958;33.196;-97.114;2024-02-28T07:22:06;3.35;;;1.38;;
19621;SDS011;9958;33.196;-97.114;2024-02-28T07:24:34;3.10;;;1.27;;
19621;SDS011;9958;33.196;-97.114;2024-02-28T07:27:02;4.30;;;1.42;;
19621;SDS011;9958;33.196;-97.114;2024-02-28T07:29:31;7.47;;;1.42;;
19621;SDS011;9958;33.196;-97.114;2024-02-28T07:31:59;2.60;;;1.50;;
19621;SDS011;9958;33.196;-97.114;2024-02-28T07:34:28;2.10;;;1.35;;
19621;SDS011;9958;33.196;-97.114;2024-02-28T07:36:58;2.22;;;0.93;;
19621;SDS011;9958;33.196;-97.114;2024-02-28T07:39:26;4.78;;;1.88;;
19621;SDS011;9958;33.196;-97.114;2024-02-28T07:41:54;4.93;;;1.38;;
19621;SDS011;9958;33.196;-97.114;2024-02-28T07:44:23;4.43;;;1.05;;
19621;SDS011;9958;33.196;-97.114;2024-02-28T07:46:51;4.95;;;1.58;;
19621;SDS011;9958;33.196;-97.114;2024-02-28T07:49:20;7.57;;;1.60;;
19621;SDS011;9958;33.196;-97.114;2024-02-28T07:51:49;0.82;;;0.82;;
19621;SDS011;9958;33.196;-97.114;2024-02-28T07:54:19;12.15;;;1.15;;
19621;SDS011;9958;33.196;-97.114;2024-02-28T07:56:48;5.63;;;1.13;;
19621;SDS011;9958;33.196;-97.114;2024-02-28T07:59:16;2.40;;;0.88;;
19621;SDS011;9958;33.196;-97.114;2024-02-28T08:01:45;1.85;;;0.93;;
19621;SDS011;9958;33.196;-97.114;2024-02-28T08:04:14;7.68;;;1.00;;
19621;SDS011;9958;33.196;-97.114;2024-02-28T08:06:42;4.85;;;0.70;;
19621;SDS011;9958;33.196;-97.114;2024-02-28T08:09:10;0.60;;;0.60;;
19621;SDS011;9958;33.196;-97.114;2024-02-28T08:11:42;5.05;;;1.65;;
19621;SDS011;9958;33.196;-97.114;2024-02-28T08:14:10;1.63;;;0.57;;
19621;SDS011;9958;33.196;-97.114;2024-02-28T08:16:38;4.90;;;1.00;;
19621;SDS011;9958;33.196;-97.114;2024-02-28T08:19:07;6.82;;;0.75;;
19621;SDS011;9958;33.196;-97.114;2024-02-28T08:21:35;7.53;;;1.30;;
19621;SDS011;9958;33.196;-97.114;2024-02-28T08:24:03;0.93;;;0.73;;
19621;SDS011;9958;33.196;-97.114;2024-02-28T08:26:32;7.18;;;1.40;;
19621;SDS011;9958;33.196;-97.114;2024-02-28T08:29:02;1.38;;;0.70;;
19621;SDS011;9958;33.196;-97.114;2024-02-28T08:31:31;2.42;;;0.77;;
19621;SDS011;9958;33.196;-97.114;2024-02-28T08:33:59;5.78;;;0.73;;
19621;SDS011;9958;33.196;-97.114;2024-02-28T08:36:29;2.47;;;0.90;;
19621;SDS011;9958;33.196;-97.114;2024-02-28T08:38:58;2.22;;;0.90;;
19621;SDS011;9958;33.196;-97.114;2024-02-28T08:41:26;0.93;;;0.60;;
19621;SDS011;9958;33.196;-97.114;2024-02-28T08:43:54;1.38;;;0.73;;
19621;SDS011;9958;33.196;-97.114;2024-02-28T08:46:24;3.03;;;1.00;;
19621;SDS011;9958;33.196;-97.114;2024-02-28T08:48:52;3.47;;;0.90;;
19621;SDS011;9958;33.196;-97.114;2024-02-28T08:51:21;4.95;;;1.13;;
19621;SDS011;9958;33.196;-97.114;2024-02-28T08:53:49;2.38;;;0.98;;
19621;SDS011;9958;33.196;-97.114;2024-02-28T08:56:19;3.83;;;0.70;;
19621;SDS011;9958;33.196;-97.114;2024-02-28T08:58:47;1.10;;;0.82;;
19621;SDS011;9958;33.196;-97.114;2024-02-28T09:01:15;4.20;;;0.57;;
19621;SDS011;9958;33.196;-97.114;2024-02-28T09:03:45;5.32;;;0.95;;
19621;SDS011;9958;33.196;-97.114;2024-02-28T09:06:14;1.58;;;1.13;;
19621;SDS011;9958;33.196;-97.114;2024-02-28T09:08:42;3.10;;;0.95;;
19621;SDS011;9958;33.196;-97.114;2024-02-28T09:11:10;0.85;;;0.52;;
19621;SDS011;9958;33.196;-97.114;2024-02-28T09:13:39;2.53;;;0.90;;
19621;SDS011;9958;33.196;-97.114;2024-02-28T09:16:07;2.53;;;2.33;;
19621;SDS011;9958;33.196;-97.114;2024-02-28T09:18:35;11.35;;;1.10;;
19621;SDS011;9958;33.196;-97.114;2024-02-28T09:21:07;0.70;;;0.70;;
19621;SDS011;9958;33.196;-97.114;2024-02-28T09:23:35;5.38;;;0.88;;
19621;SDS011;9958;33.196;-97.114;2024-02-28T09:26:04;5.97;;;1.40;;
19621;SDS011;9958;33.196;-97.114;2024-02-28T09:28:32;4.47;;;0.93;;
19621;SDS011;9958;33.196;-97.114;2024-02-28T09:31:00;6.22;;;1.13;;
19621;SDS011;9958;33.196;-97.114;2024-02-28T09:33:29;5.35;;;0.98;;
19621;SDS011;9958;33.196;-97.114;2024-02-28T09:35:57;0.90;;;0.75;;
19621;SDS011;9958;33.196;-97.114;2024-02-28T09:38:27;2.30;;;0.82;;
19621;SDS011;9958;33.196;-97.114;2024-02-28T09:40:57;4.40;;;1.05;;
19621;SDS011;9958;33.196;-97.114;2024-02-28T09:43:28;2.60;;;0.75;;
19621;SDS011;9958;33.196;-97.114;2024-02-28T09:45:58;1.38;;;0.80;;
19621;SDS011;9958;33.196;-97.114;2024-02-28T09:48:31;1.55;;;0.65;;
19621;SDS011;9958;33.196;-97.114;2024-02-28T09:50:59;6.22;;;0.70;;
19621;SDS011;9958;33.196;-97.114;2024-02-28T09:53:29;1.20;;;0.75;;
19621;SDS011;9958;33.196;-97.114;2024-02-28T09:55:58;1.63;;;0.80;;
19621;SDS011;9958;33.196;-97.114;2024-02-28T09:58:26;2.00;;;0.57;;
19621;SDS011;9958;33.196;-97.114;2024-02-28T10:00:58;1.17;;;0.75;;
19621;SDS011;9958;33.196;-97.114;2024-02-28T10:03:29;1.38;;;0.65;;
19621;SDS011;9958;33.196;-97.114;2024-02-28T10:05:58;2.92;;;0.82;;
19621;SDS011;9958;33.196;-97.114;2024-02-28T10:08:26;4.45;;;0.90;;
19621;SDS011;9958;33.196;-97.114;2024-02-28T10:10:57;3.65;;;0.52;;
19621;SDS011;9958;33.196;-97.114;2024-02-28T10:13:25;2.53;;;0.90;;
19621;SDS011;9958;33.196;-97.114;2024-02-28T10:15:53;0.70;;;0.70;;
19621;SDS011;9958;33.196;-97.114;2024-02-28T10:18:22;1.38;;;0.93;;
19621;SDS011;9958;33.196;-97.114;2024-02-28T10:20:50;2.33;;;0.85;;
19621;SDS011;9958;33.196;-97.114;2024-02-28T10:23:18;6.32;;;1.15;;
19621;SDS011;9958;33.196;-97.114;2024-02-28T10:25:48;2.67;;;0.77;;
19621;SDS011;9958;33.196;-97.114;2024-02-28T10:28:17;2.90;;;0.70;;
19621;SDS011;9958;33.196;-97.114;2024-02-28T10:30:45;1.80;;;0.70;;
19621;SDS011;9958;33.196;-97.114;2024-02-28T10:33:14;6.40;;;1.23;;
19621;SDS011;9958;33.196;-97.114;2024-02-28T10:35:42;1.35;;;0.82;;
19621;SDS011;9958;33.196;-97.114;2024-02-28T10:38:11;0.60;;;0.60;;
19621;SDS011;9958;33.196;-97.114;2024-02-28T10:40:40;0.77;;;0.60;;
19621;SDS011;9958;33.196;-97.114;2024-02-28T10:43:10;2.97;;;0.88;;
19621;SDS011;9958;33.196;-97.114;2024-02-28T10:45:39;1.50;;;0.80;;
19621;SDS011;9958;33.196;-97.114;2024-02-28T10:48:10;0.63;;;0.63;;
19621;SDS011;9958;33.196;-97.114;2024-02-28T10:50:41;1.48;;;0.90;;
19621;SDS011;9958;33.196;-97.114;2024-02-28T10:53:12;1.15;;;0.77;;
19621;SDS011;9958;33.196;-97.114;2024-02-28T10:55:42;0.70;;;0.70;;
19621;SDS011;9958;33.196;-97.114;2024-02-28T10:58:15;1.38;;;1.00;;
19621;SDS011;9958;33.196;-97.114;2024-02-28T11:00:46;0.60;;;0.57;;
19621;SDS011;9958;33.196;-97.114;2024-02-28T11:03:16;1.20;;;0.80;;
19621;SDS011;9958;33.196;-97.114;2024-02-28T11:05:46;7.13;;;0.95;;
19621;SDS011;9958;33.196;-97.114;2024-02-28T11:08:20;1.15;;;0.68;;
19621;SDS011;9958;33.196;-97.114;2024-02-28T11:10:54;0.80;;;0.80;;
19621;SDS011;9958;33.196;-97.114;2024-02-28T11:13:25;1.27;;;1.00;;
19621;SDS011;9958;33.196;-97.114;2024-02-28T11:15:54;3.92;;;0.75;;
19621;SDS011;9958;33.196;-97.114;2024-02-28T11:18:22;2.85;;;0.75;;
19621;SDS011;9958;33.196;-97.114;2024-02-28T11:20:51;0.60;;;0.60;;
19621;SDS011;9958;33.196;-97.114;2024-02-28T11:23:20;0.55;;;0.55;;
19621;SDS011;9958;33.196;-97.114;2024-02-28T11:25:48;0.70;;;0.70;;
19621;SDS011;9958;33.196;-97.114;2024-02-28T11:28:16;1.38;;;0.98;;
19621;SDS011;9958;33.196;-97.114;2024-02-28T11:30:51;0.82;;;0.70;;
19621;SDS011;9958;33.196;-97.114;2024-02-28T11:33:19;4.18;;;0.90;;
19621;SDS011;9958;33.196;-97.114;2024-02-28T11:35:53;0.95;;;0.90;;
19621;SDS011;9958;33.196;-97.114;2024-02-28T11:38:24;0.55;;;0.52;;
19621;SDS011;9958;33.196;-97.114;2024-02-28T11:40:52;0.98;;;0.75;;
19621;SDS011;9958;33.196;-97.114;2024-02-28T11:43:21;2.10;;;1.13;;
19621;SDS011;9958;33.196;-97.114;2024-02-28T11:45:51;1.05;;;0.90;;
19621;SDS011;9958;33.196;-97.114;2024-02-28T11:48:20;2.28;;;1.17;;
19621;SDS011;9958;33.196;-97.114;2024-02-28T11:50:50;1.63;;;1.00;;
19621;SDS011;9958;33.196;-97.114;2024-02-28T11:53:18;1.15;;;0.95;;
19621;SDS011;9958;33.196;-97.114;2024-02-28T11:55:47;3.00;;;1.58;;
19621;SDS011;9958;33.196;-97.114;2024-02-28T11:58:15;2.33;;;1.02;;
19621;SDS011;9958;33.196;-97.114;2024-02-28T12:00:47;0.90;;;0.90;;
19621;SDS011;9958;33.196;-97.114;2024-02-28T12:03:21;5.65;;;1.63;;
19621;SDS011;9958;33.196;-97.114;2024-02-28T12:05:49;6.95;;;1.17;;
19621;SDS011;9958;33.196;-97.114;2024-02-28T12:08:18;7.13;;;1.40;;
19621;SDS011;9958;33.196;-97.114;2024-02-28T12:10:47;1.98;;;1.13;;
19621;SDS011;9958;33.196;-97.114;2024-02-28T12:13:16;4.47;;;1.23;;
19621;SDS011;9958;33.196;-97.114;2024-02-28T12:15:45;4.13;;;1.10;;
19621;SDS011;9958;33.196;-97.114;2024-02-28T12:18:14;2.33;;;1.17;;
19621;SDS011;9958;33.196;-97.114;2024-02-28T12:20:44;1.20;;;1.10;;
19621;SDS011;9958;33.196;-97.114;2024-02-28T12:23:14;0.77;;;0.77;;
19621;SDS011;9958;33.196;-97.114;2024-02-28T12:25:43;1.35;;;1.15;;
19621;SDS011;9958;33.196;-97.114;2024-02-28T12:28:11;1.20;;;1.20;;
19621;SDS011;9958;33.196;-97.114;2024-02-28T12:30:41;4.68;;;1.45;;
19621;SDS011;9958;33.196;-97.114;2024-02-28T12:33:10;1.75;;;1.15;;
19621;SDS011;9958;33.196;-97.114;2024-02-28T12:35:38;1.00;;;1.00;;
19621;SDS011;9958;33.196;-97.114;2024-02-28T12:38:08;2.58;;;0.73;;
19621;SDS011;9958;33.196;-97.114;2024-02-28T12:40:37;4.38;;;1.58;;
19621;SDS011;9958;33.196;-97.114;2024-02-28T12:43:05;1.05;;;1.00;;
19621;SDS011;9958;33.196;-97.114;2024-02-28T12:45:33;1.55;;;1.20;;
19621;SDS011;9958;33.196;-97.114;2024-02-28T12:48:02;2.13;;;1.27;;
19621;SDS011;9958;33.196;-97.114;2024-02-28T12:50:31;1.45;;;1.10;;
19621;SDS011;9958;33.196;-97.114;2024-02-28T12:53:00;1.08;;;0.82;;
19621;SDS011;9958;33.196;-97.114;2024-02-28T12:55:30;6.03;;;0.85;;
19621;SDS011;9958;33.196;-97.114;2024-02-28T12:57:59;1.38;;;1.27;;
19621;SDS011;9958;33.196;-97.114;2024-02-28T13:00:30;1.88;;;0.88;;
19621;SDS011;9958;33.196;-97.114;2024-02-28T13:02:58;0.93;;;0.90;;
19621;SDS011;9958;33.196;-97.114;2024-02-28T13:05:27;0.80;;;0.80;;
19621;SDS011;9958;33.196;-97.114;2024-02-28T13:07:55;1.08;;;1.00;;
19621;SDS011;9958;33.196;-97.114;2024-02-28T13:10:23;1.20;;;1.10;;
19621;SDS011;9958;33.196;-97.114;2024-02-28T13:12:53;1.02;;;0.85;;
19621;SDS011;9958;33.196;-97.114;2024-02-28T13:15:22;0.75;;;0.60;;
19621;SDS011;9958;33.196;-97.114;2024-02-28T13:17:50;1.48;;;1.02;;
19621;SDS011;9958;33.196;-97.114;2024-02-28T13:20:18;0.80;;;0.80;;
19621;SDS011;9958;33.196;-97.114;2024-02-28T13:22:47;1.70;;;1.40;;
19621;SDS011;9958;33.196;-97.114;2024-02-28T13:25:15;1.20;;;1.10;;
19621;SDS011;9958;33.196;-97.114;2024-02-28T13:27:45;1.65;;;1.00;;
19621;SDS011;9958;33.196;-97.114;2024-02-28T13:30:15;3.05;;;0.98;;
19621;SDS011;9958;33.196;-97.114;2024-02-28T13:32:43;0.98;;;0.98;;
19621;SDS011;9958;33.196;-97.114;2024-02-28T13:35:12;0.95;;;0.88;;
19621;SDS011;9958;33.196;-97.114;2024-02-28T13:37:40;1.10;;;1.00;;
19621;SDS011;9958;33.196;-97.114;2024-02-28T13:40:09;1.90;;;1.80;;
19621;SDS011;9958;33.196;-97.114;2024-02-28T13:42:37;0.80;;;0.80;;
19621;SDS011;9958;33.196;-97.114;2024-02-28T13:45:06;1.67;;;1.15;;
19621;SDS011;9958;33.196;-97.114;2024-02-28T13:47:38;1.35;;;1.00;;
19621;SDS011;9958;33.196;-97.114;2024-02-28T13:50:06;1.02;;;1.02;;
19621;SDS011;9958;33.196;-97.114;2024-02-28T13:52:36;1.25;;;0.80;;
19621;SDS011;9958;33.196;-97.114;2024-02-28T13:55:04;1.52;;;1.00;;
19621;SDS011;9958;33.196;-97.114;2024-02-28T13:57:34;1.88;;;0.73;;
19621;SDS011;9958;33.196;-97.114;2024-02-28T14:00:03;1.17;;;0.85;;
19621;SDS011;9958;33.196;-97.114;2024-02-28T14:02:38;3.05;;;1.15;;
19621;SDS011;9958;33.196;-97.114;2024-02-28T14:05:06;0.90;;;0.90;;
19621;SDS011;9958;33.196;-97.114;2024-02-28T14:07:33;1.42;;;1.27;;
19621;SDS011;9958;33.196;-97.114;2024-02-28T14:10:05;0.85;;;0.82;;
19621;SDS011;9958;33.196;-97.114;2024-02-28T14:12:36;7.05;;;0.98;;
19621;SDS011;9958;33.196;-97.114;2024-02-28T14:15:05;1.20;;;0.80;;
19621;SDS011;9958;33.196;-97.114;2024-02-28T14:17:34;1.30;;;0.85;;
19621;SDS011;9958;33.196;-97.114;2024-02-28T14:20:05;6.40;;;1.05;;
19621;SDS011;9958;33.196;-97.114;2024-02-28T14:22:34;0.80;;;0.80;;
19621;SDS011;9958;33.196;-97.114;2024-02-28T14:25:04;1.17;;;0.80;;
19621;SDS011;9958;33.196;-97.114;2024-02-28T14:27:32;1.40;;;0.73;;
19621;SDS011;9958;33.196;-97.114;2024-02-28T14:30:01;1.00;;;0.98;;
19621;SDS011;9958;33.196;-97.114;2024-02-28T14:32:33;1.42;;;0.80;;
19621;SDS011;9958;33.196;-97.114;2024-02-28T14:35:01;2.42;;;0.93;;